Time;durP1;ratioP1;P1;durP2;ratioP2;P2;SDS_P1;SDS_P2;PMS_P1;PMS_P2;Temp;Humidity;BMP_temperature;BMP_pressure;BME280_temperature;BME280_humidity;BME280_pressure;Samples;Min_cycle;Max_cycle;Signal;HPM_P1;HPM_P2
2023/07/31 00:00:27;;;;;;;5.35;1.92;;;13.70;99.90;;;;;;5015321;28;20029;-60
2023/07/31 00:02:54;;;;;;;5.95;1.42;;;13.70;99.90;;;;;;5017032;28;20033;-60
2023/07/31 00:05:19;;;;;;;2.72;1.27;;;13.60;99.90;;;;;;5017091;28;20029;-61
2023/07/31 00:07:45;;;;;;;4.30;1.92;;;13.60;99.90;;;;;;5010343;28;20065;-61
2023/07/31 00:10:10;;;;;;;3.20;1.88;;;13.60;99.90;;;;;;5013964;28;20087;-60
2023/07/31 00:12:37;;;;;;;3.08;1.90;;;13.60;99.90;;;;;;5015322;28;20042;-59
2023/07/31 00:15:03;;;;;;;5.20;1.60;;;13.60;99.90;;;;;;5016747;28;20083;-60
2023/07/31 00:17:29;;;;;;;4.30;1.60;;;13.70;99.90;;;;;;5016216;28;20121;-60
2023/07/31 00:19:54;;;;;;;5.63;2.22;;;13.70;99.90;;;;;;5013329;28;20120;-61
2023/07/31 00:22:20;;;;;;;3.35;1.75;;;13.70;99.90;;;;;;5011603;28;20083;-60
2023/07/31 00:24:46;;;;;;;3.53;1.80;;;13.70;99.90;;;;;;5015163;28;20053;-60
2023/07/31 00:27:11;;;;;;;4.03;1.48;;;13.70;99.90;;;;;;5018164;28;20518;-61
2023/07/31 00:29:37;;;;;;;3.20;1.67;;;13.70;99.90;;;;;;5016414;28;20045;-60
2023/07/31 00:32:03;;;;;;;1.83;1.50;;;13.70;99.90;;;;;;5015480;28;20022;-61
2023/07/31 00:34:28;;;;;;;2.97;1.77;;;13.70;99.90;;;;;;5013532;28;20038;-61
2023/07/31 00:36:54;;;;;;;4.10;1.73;;;13.70;99.90;;;;;;5016509;28;20034;-60
2023/07/31 00:39:19;;;;;;;3.38;1.67;;;13.70;99.90;;;;;;5015077;28;20453;-62
2023/07/31 00:41:45;;;;;;;4.32;1.92;;;13.80;99.90;;;;;;5014092;28;20080;-61
2023/07/31 00:44:11;;;;;;;3.40;1.90;;;13.80;99.90;;;;;;5013024;28;20148;-62
2023/07/31 00:46:36;;;;;;;2.90;1.98;;;13.90;99.90;;;;;;5015840;28;20107;-59
2023/07/31 00:49:03;;;;;;;7.40;2.13;;;13.90;99.90;;;;;;5012890;28;20520;-62
2023/07/31 00:51:28;;;;;;;4.00;1.70;;;13.90;99.90;;;;;;5021517;28;20026;-61
2023/07/31 00:53:55;;;;;;;2.35;1.42;;;13.90;99.90;;;;;;5018108;28;20049;-61
2023/07/31 00:56:22;;;;;;;2.53;1.63;;;14.00;99.90;;;;;;5021846;28;20030;-62
2023/07/31 00:58:47;;;;;;;4.30;2.05;;;14.00;99.90;;;;;;5017902;28;20037;-62
2023/07/31 01:01:13;;;;;;;3.33;1.63;;;14.00;99.90;;;;;;5021211;28;20032;-61
2023/07/31 01:03:39;;;;;;;4.28;1.73;;;14.10;99.90;;;;;;5020411;28;20113;-60
2023/07/31 01:06:13;;;;;;;6.70;1.85;;;14.10;99.90;;;;;;5018155;28;20076;-61
2023/07/31 01:09:02;;;;;;;5.93;1.77;;;14.10;99.90;;;;;;5018484;28;20022;-60
2023/07/31 01:11:35;;;;;;;5.03;1.95;;;14.10;99.90;;;;;;5016785;28;20030;-60
2023/07/31 01:14:01;;;;;;;3.45;1.90;;;14.10;99.90;;;;;;5017872;28;20045;-60
2023/07/31 01:16:27;;;;;;;5.40;2.10;;;14.10;99.90;;;;;;5016240;28;20458;-61
2023/07/31 01:18:52;;;;;;;2.28;1.73;;;14.10;99.90;;;;;;5023474;28;20056;-61
2023/07/31 01:21:29;;;;;;;3.22;2.13;;;14.10;99.90;;;;;;5016159;28;20494;-61
2023/07/31 01:24:21;;;;;;;6.55;2.05;;;14.10;99.90;;;;;;5017429;28;20038;-63
2023/07/31 01:26:59;;;;;;;4.20;2.33;;;14.10;99.90;;;;;;5016823;28;20034;-63
2023/07/31 01:29:53;;;;;;;4.38;2.10;;;14.10;99.90;;;;;;5018284;28;20014;-60
2023/07/31 01:32:20;;;;;;;5.90;2.15;;;14.10;99.90;;;;;;5016876;28;20387;-60
2023/07/31 01:34:47;;;;;;;12.02;3.03;;;14.10;99.90;;;;;;5016682;28;20029;-60
2023/07/31 01:37:13;;;;;;;4.32;2.20;;;14.00;99.90;;;;;;5017414;28;20026;-60
2023/07/31 01:39:38;;;;;;;4.88;2.30;;;14.10;99.90;;;;;;5019184;28;20048;-62
2023/07/31 01:42:04;;;;;;;6.55;2.97;;;14.10;99.90;;;;;;5016696;28;20029;-59
2023/07/31 01:44:30;;;;;;;5.30;2.38;;;14.10;99.90;;;;;;5019655;28;20021;-61
2023/07/31 01:46:56;;;;;;;3.40;2.00;;;14.10;99.90;;;;;;5022768;28;20030;-61
2023/07/31 01:49:21;;;;;;;8.43;2.30;;;14.10;99.90;;;;;;5015174;28;20498;-60
2023/07/31 01:51:47;;;;;;;4.07;2.22;;;14.10;99.90;;;;;;5017369;28;20088;-61
2023/07/31 01:54:13;;;;;;;3.80;1.90;;;14.00;99.90;;;;;;5015222;28;20045;-60
2023/07/31 01:56:38;;;;;;;8.15;2.33;;;14.00;99.90;;;;;;5016357;28;20037;-61
2023/07/31 01:59:04;;;;;;;5.50;2.50;;;14.00;99.90;;;;;;5019686;28;20549;-61
2023/07/31 02:01:29;;;;;;;4.38;2.15;;;14.10;99.90;;;;;;5013481;28;20113;-61
2023/07/31 02:03:55;;;;;;;6.07;2.55;;;14.10;99.90;;;;;;5013884;28;20022;-61
2023/07/31 02:06:22;;;;;;;4.80;2.65;;;14.00;99.90;;;;;;5014779;28;20812;-61
2023/07/31 02:08:47;;;;;;;6.88;2.65;;;14.00;99.90;;;;;;5018063;28;20052;-60
2023/07/31 02:11:13;;;;;;;5.28;2.40;;;14.10;99.90;;;;;;5018133;28;20563;-61
2023/07/31 02:13:39;;;;;;;6.03;2.08;;;14.10;99.90;;;;;;5016850;28;20041;-62
2023/07/31 02:16:04;;;;;;;5.03;2.10;;;14.10;99.90;;;;;;5016209;28;20029;-60
2023/07/31 02:18:30;;;;;;;2.92;1.75;;;14.10;99.90;;;;;;5017275;28;20733;-61
2023/07/31 02:20:56;;;;;;;3.58;2.60;;;14.10;99.90;;;;;;5017263;28;20114;-61
2023/07/31 02:23:21;;;;;;;4.13;1.83;;;14.10;99.90;;;;;;5018210;28;20030;-61
2023/07/31 02:25:47;;;;;;;7.35;2.25;;;14.20;99.90;;;;;;5017429;28;20041;-60
2023/07/31 02:28:13;;;;;;;3.72;2.00;;;14.20;99.90;;;;;;5018186;28;20036;-61
2023/07/31 02:30:39;;;;;;;5.45;2.15;;;14.20;99.90;;;;;;5018393;28;20038;-62
2023/07/31 02:33:05;;;;;;;8.25;2.30;;;14.20;99.90;;;;;;5018922;28;20099;-60
2023/07/31 02:35:31;;;;;;;2.65;2.10;;;14.30;99.90;;;;;;5016934;28;20025;-60
2023/07/31 02:37:56;;;;;;;4.35;1.92;;;14.30;99.90;;;;;;5017471;28;20363;-62
2023/07/31 02:40:23;;;;;;;6.32;2.67;;;14.30;99.90;;;;;;5016441;28;20038;-61
2023/07/31 02:42:48;;;;;;;8.93;2.22;;;14.30;99.90;;;;;;5019054;28;20446;-60
2023/07/31 02:45:14;;;;;;;6.25;2.05;;;14.30;99.90;;;;;;5017926;28;20032;-60
2023/07/31 02:47:40;;;;;;;5.93;2.55;;;14.30;99.90;;;;;;5015778;28;20036;-61
2023/07/31 02:50:06;;;;;;;11.45;2.08;;;14.40;99.90;;;;;;5017713;28;20010;-61
2023/07/31 02:52:31;;;;;;;3.60;1.77;;;14.40;99.90;;;;;;5015325;28;20594;-61
2023/07/31 02:54:58;;;;;;;4.28;2.13;;;14.40;99.90;;;;;;5016559;28;20116;-61
2023/07/31 02:57:23;;;;;;;6.72;2.47;;;14.40;99.90;;;;;;5017197;28;20509;-61
2023/07/31 02:59:49;;;;;;;3.70;2.05;;;14.40;99.90;;;;;;5017130;28;20021;-63
2023/07/31 03:02:15;;;;;;;3.92;1.70;;;14.40;99.90;;;;;;5015526;28;20253;-61
2023/07/31 03:04:40;;;;;;;3.47;1.80;;;14.40;99.90;;;;;;5016485;28;20057;-61
2023/07/31 03:07:06;;;;;;;5.25;2.45;;;14.50;99.90;;;;;;5017041;28;20029;-63
2023/07/31 03:09:32;;;;;;;4.60;2.25;;;14.50;99.90;;;;;;5018315;28;20053;-61
2023/07/31 03:11:57;;;;;;;5.15;2.53;;;14.50;99.90;;;;;;5017073;28;20661;-62
2023/07/31 03:14:23;;;;;;;5.32;1.88;;;14.50;99.90;;;;;;5011316;28;20032;-60
2023/07/31 03:16:49;;;;;;;3.92;1.75;;;14.50;99.90;;;;;;5015595;28;20021;-61
2023/07/31 03:19:14;;;;;;;4.05;1.73;;;14.60;99.90;;;;;;5015334;28;20037;-61
2023/07/31 03:21:40;;;;;;;5.25;1.80;;;14.60;99.90;;;;;;5015389;28;20053;-61
2023/07/31 03:24:06;;;;;;;4.35;1.60;;;14.60;99.90;;;;;;5017500;28;20194;-63
2023/07/31 03:26:32;;;;;;;2.72;1.77;;;14.70;99.90;;;;;;5016196;28;20034;-61
2023/07/31 03:28:58;;;;;;;7.90;1.98;;;14.70;99.90;;;;;;5015102;28;20053;-61
2023/07/31 03:31:23;;;;;;;4.30;2.00;;;14.80;99.90;;;;;;5019769;28;20509;-63
2023/07/31 03:33:49;;;;;;;6.28;2.30;;;14.70;99.90;;;;;;5013738;28;20044;-63
2023/07/31 03:36:15;;;;;;;3.67;1.65;;;14.80;99.90;;;;;;5018023;28;20040;-62
2023/07/31 03:38:40;;;;;;;3.55;1.75;;;14.80;99.90;;;;;;5014854;28;20033;-61
2023/07/31 03:41:06;;;;;;;3.28;1.42;;;14.70;99.90;;;;;;5016069;28;20095;-62
2023/07/31 03:43:33;;;;;;;7.50;2.28;;;14.70;99.90;;;;;;5016280;28;20409;-61
2023/07/31 03:46:00;;;;;;;3.60;1.73;;;14.70;99.90;;;;;;5014868;28;20104;-62
2023/07/31 03:48:26;;;;;;;5.30;1.98;;;14.80;99.90;;;;;;5022149;28;20442;-61
2023/07/31 03:50:51;;;;;;;4.60;1.63;;;14.80;99.90;;;;;;5016196;28;20030;-60
2023/07/31 03:53:17;;;;;;;4.75;1.80;;;14.80;99.90;;;;;;5015957;28;20041;-63
2023/07/31 03:55:43;;;;;;;3.47;1.63;;;14.80;99.90;;;;;;5015262;28;20088;-60
2023/07/31 03:58:08;;;;;;;2.85;2.08;;;14.80;99.90;;;;;;5015680;28;20100;-59
2023/07/31 04:00:34;;;;;;;5.78;1.70;;;14.90;99.90;;;;;;5016031;28;20037;-61
2023/07/31 04:02:59;;;;;;;3.47;1.77;;;14.90;99.90;;;;;;5015447;28;20428;-61
2023/07/31 04:05:25;;;;;;;4.38;1.63;;;14.90;99.90;;;;;;5016297;28;20381;-62
2023/07/31 04:07:51;;;;;;;5.63;2.10;;;14.90;99.90;;;;;;5014147;28;20438;-60
2023/07/31 04:10:16;;;;;;;3.35;2.00;;;14.90;99.90;;;;;;5014403;28;20076;-60
2023/07/31 04:12:42;;;;;;;7.10;2.00;;;14.90;99.90;;;;;;5015586;28;20559;-61
2023/07/31 04:15:08;;;;;;;3.58;1.90;;;14.90;99.90;;;;;;5015196;28;20029;-60
2023/07/31 04:17:33;;;;;;;3.78;1.60;;;14.90;99.90;;;;;;5017735;28;20045;-61
2023/07/31 04:19:59;;;;;;;3.17;1.55;;;14.90;99.90;;;;;;5017786;28;20037;-61
2023/07/31 04:22:25;;;;;;;4.30;1.77;;;14.90;99.90;;;;;;5017034;28;20040;-60
2023/07/31 04:24:50;;;;;;;3.15;1.52;;;15.00;99.90;;;;;;5016635;28;20037;-60
2023/07/31 04:27:16;;;;;;;5.50;1.75;;;15.00;99.90;;;;;;5023727;28;20112;-60
2023/07/31 04:29:42;;;;;;;4.85;1.75;;;15.10;99.90;;;;;;5023085;28;20041;-60
2023/07/31 04:32:08;;;;;;;5.13;1.55;;;15.10;99.90;;;;;;5021087;28;20663;-61
2023/07/31 04:34:34;;;;;;;4.95;1.90;;;15.10;99.90;;;;;;5017927;28;20033;-60
2023/07/31 04:36:59;;;;;;;3.28;1.63;;;15.20;99.90;;;;;;5019869;28;20033;-60
2023/07/31 04:39:25;;;;;;;5.10;1.85;;;15.20;99.90;;;;;;5018781;28;20165;-60
2023/07/31 04:41:50;;;;;;;5.53;1.95;;;15.20;99.90;;;;;;5020285;28;20120;-63
2023/07/31 04:44:16;;;;;;;4.20;1.98;;;15.20;99.90;;;;;;5023792;28;20032;-61
2023/07/31 04:46:42;;;;;;;2.65;1.42;;;15.20;99.90;;;;;;5019698;28;20058;-60
2023/07/31 04:49:07;;;;;;;3.95;1.70;;;15.10;99.90;;;;;;5020942;28;20465;-60
2023/07/31 04:51:33;;;;;;;4.43;1.85;;;15.10;99.90;;;;;;5016049;28;20030;-61
2023/07/31 04:53:58;;;;;;;3.53;1.60;;;15.10;99.90;;;;;;5020481;28;20815;-61
2023/07/31 04:56:24;;;;;;;8.65;2.08;;;15.20;99.90;;;;;;5018496;28;20087;-61
2023/07/31 04:58:49;;;;;;;3.85;1.30;;;15.20;99.90;;;;;;5017099;28;20429;-60
2023/07/31 05:01:15;;;;;;;4.50;1.83;;;15.20;99.90;;;;;;5023734;28;20424;-61
2023/07/31 05:03:41;;;;;;;5.32;2.00;;;15.20;99.90;;;;;;5018924;28;20036;-61
2023/07/31 05:06:06;;;;;;;6.03;1.70;;;15.20;99.90;;;;;;5020907;28;20041;-62
2023/07/31 05:08:33;;;;;;;4.78;1.58;;;15.30;99.90;;;;;;5020927;28;20022;-62
2023/07/31 05:10:58;;;;;;;3.28;1.80;;;15.40;99.90;;;;;;5019788;28;20116;-62
2023/07/31 05:13:24;;;;;;;5.15;1.67;;;15.40;99.90;;;;;;5020429;28;20164;-62
2023/07/31 05:15:50;;;;;;;6.60;1.70;;;15.50;99.90;;;;;;5017166;28;20465;-61
2023/07/31 05:18:15;;;;;;;4.15;1.55;;;15.50;99.90;;;;;;5018956;28;20038;-62
2023/07/31 05:20:41;;;;;;;3.65;1.77;;;15.60;99.90;;;;;;5017148;28;20038;-61
2023/07/31 05:23:07;;;;;;;2.08;1.65;;;15.60;99.90;;;;;;5020378;28;20077;-61
2023/07/31 05:25:32;;;;;;;5.53;1.85;;;15.60;99.90;;;;;;5020612;28;20033;-62
2023/07/31 05:27:58;;;;;;;2.42;1.33;;;15.60;99.90;;;;;;5019661;28;20056;-61
2023/07/31 05:30:23;;;;;;;4.47;1.67;;;15.60;99.90;;;;;;5018576;28;20029;-61
2023/07/31 05:32:49;;;;;;;6.43;2.00;;;15.60;99.90;;;;;;5019464;28;20036;-62
2023/07/31 05:35:15;;;;;;;4.07;1.50;;;15.70;99.90;;;;;;5017204;28;20030;-61
2023/07/31 05:37:40;;;;;;;2.47;1.80;;;15.70;99.90;;;;;;5015774;28;20026;-62
2023/07/31 05:40:07;;;;;;;4.72;1.35;;;15.70;99.90;;;;;;5020595;28;20026;-62
2023/07/31 05:42:32;;;;;;;2.33;1.40;;;15.70;99.90;;;;;;5018247;28;20026;-62
2023/07/31 05:44:58;;;;;;;4.88;1.60;;;15.80;99.90;;;;;;5015858;28;20034;-61
2023/07/31 05:47:24;;;;;;;2.28;1.55;;;15.80;99.90;;;;;;5016484;28;20104;-62
2023/07/31 05:49:52;;;;;;;3.97;1.67;;;15.70;99.90;;;;;;5019068;28;20029;-62
2023/07/31 05:52:18;;;;;;;4.95;2.15;;;15.70;99.90;;;;;;5018508;28;20026;-62
2023/07/31 05:54:44;;;;;;;4.18;1.60;;;15.80;99.90;;;;;;5018799;28;20083;-63
2023/07/31 05:57:09;;;;;;;4.45;1.90;;;15.80;99.90;;;;;;5015715;28;20473;-61
2023/07/31 05:59:35;;;;;;;5.28;1.77;;;15.80;99.90;;;;;;5016513;28;20026;-62
2023/07/31 06:02:00;;;;;;;7.88;2.20;;;15.80;99.90;;;;;;5017962;28;20018;-63
2023/07/31 06:04:26;;;;;;;2.40;1.55;;;15.90;99.90;;;;;;5018367;28;20084;-61
2023/07/31 06:06:52;;;;;;;5.45;1.85;;;15.90;99.90;;;;;;5016548;28;20688;-62
2023/07/31 06:09:17;;;;;;;13.88;1.63;;;15.90;99.90;;;;;;5014313;28;20026;-63
2023/07/31 06:11:43;;;;;;;5.15;1.98;;;15.90;99.90;;;;;;5014907;28;20048;-62
2023/07/31 06:14:09;;;;;;;3.95;1.70;;;15.90;99.90;;;;;;5014462;28;20057;-62
2023/07/31 06:16:34;;;;;;;2.95;1.40;;;16.00;99.90;;;;;;5015372;28;20032;-61
2023/07/31 06:19:00;;;;;;;5.22;1.70;;;16.00;99.90;;;;;;5019148;28;20042;-62
2023/07/31 06:21:26;;;;;;;3.10;1.45;;;16.10;99.90;;;;;;5018414;28;20076;-62
2023/07/31 06:23:52;;;;;;;5.50;1.42;;;16.20;99.90;;;;;;5016965;28;20021;-62
2023/07/31 06:26:18;;;;;;;3.55;1.55;;;16.40;99.90;;;;;;5019281;28;20049;-63
2023/07/31 06:28:43;;;;;;;7.10;1.85;;;16.50;99.90;;;;;;5017748;28;20535;-62
2023/07/31 06:31:09;;;;;;;4.03;1.60;;;16.60;99.90;;;;;;5017845;28;20128;-62
2023/07/31 06:33:35;;;;;;;3.15;1.70;;;16.70;99.90;;;;;;5020167;28;20417;-61
2023/07/31 06:36:01;;;;;;;4.00;1.70;;;16.80;99.90;;;;;;5020030;28;20028;-62
2023/07/31 06:38:27;;;;;;;4.32;1.67;;;16.90;99.90;;;;;;5019758;28;20037;-60
2023/07/31 06:40:53;;;;;;;7.15;1.65;;;16.90;99.90;;;;;;5020023;28;20721;-59
2023/07/31 06:43:18;;;;;;;11.68;1.70;;;17.00;99.90;;;;;;5016437;28;20029;-58
2023/07/31 06:45:45;;;;;;;3.60;1.70;;;17.10;99.90;;;;;;5020149;28;20056;-58
2023/07/31 06:48:11;;;;;;;3.10;1.50;;;17.20;99.90;;;;;;5015951;28;20030;-59
2023/07/31 06:50:36;;;;;;;4.78;1.77;;;17.30;99.90;;;;;;5020850;28;20029;-59
2023/07/31 06:53:02;;;;;;;5.00;1.42;;;17.40;99.90;;;;;;5017639;28;20014;-58
2023/07/31 06:55:28;;;;;;;4.45;2.00;;;17.40;99.90;;;;;;5017859;28;20039;-58
2023/07/31 06:57:55;;;;;;;4.90;1.55;;;17.50;99.90;;;;;;5013325;28;20429;-60
2023/07/31 07:00:22;;;;;;;2.90;1.42;;;17.50;99.90;;;;;;5016502;28;20026;-59
2023/07/31 07:02:48;;;;;;;5.82;1.63;;;17.50;99.90;;;;;;5016641;28;20397;-59
2023/07/31 07:05:15;;;;;;;3.03;1.80;;;17.60;99.90;;;;;;5015643;28;20032;-59
2023/07/31 07:07:41;;;;;;;3.92;1.70;;;17.60;99.90;;;;;;5016192;28;20030;-60
2023/07/31 07:10:07;;;;;;;4.53;1.90;;;17.50;99.90;;;;;;5015817;28;20125;-59
2023/07/31 07:12:33;;;;;;;3.35;2.03;;;17.50;99.90;;;;;;5016746;28;20088;-60
2023/07/31 07:14:59;;;;;;;5.13;1.90;;;17.40;99.90;;;;;;5012439;28;20029;-59
2023/07/31 07:17:27;;;;;;;7.45;1.83;;;17.40;99.90;;;;;;5015513;28;20030;-60
2023/07/31 07:19:53;;;;;;;4.07;1.80;;;17.50;99.90;;;;;;5015892;28;20049;-60
2023/07/31 07:22:18;;;;;;;5.88;1.40;;;17.60;99.90;;;;;;5014899;28;20033;-58
2023/07/31 07:24:44;;;;;;;6.60;2.13;;;17.70;99.90;;;;;;5019693;28;20032;-60
2023/07/31 07:27:10;;;;;;;5.07;1.52;;;17.80;99.90;;;;;;5017175;28;20034;-58
2023/07/31 07:29:37;;;;;;;5.57;2.05;;;18.00;99.90;;;;;;5018245;28;20084;-57
2023/07/31 07:32:03;;;;;;;6.40;1.52;;;18.00;99.90;;;;;;5017179;28;20021;-59
2023/07/31 07:34:29;;;;;;;2.67;1.70;;;18.00;99.90;;;;;;5013585;28;20161;-59
2023/07/31 07:36:55;;;;;;;7.50;1.75;;;18.00;99.90;;;;;;5022254;28;20045;-58
2023/07/31 07:39:20;;;;;;;6.30;2.47;;;17.90;99.90;;;;;;5016558;28;20063;-58
2023/07/31 07:41:46;;;;;;;4.90;1.73;;;17.90;99.90;;;;;;5022714;28;20152;-58
2023/07/31 07:44:13;;;;;;;3.50;1.77;;;17.90;99.90;;;;;;5015069;28;20104;-59
2023/07/31 07:46:39;;;;;;;6.60;1.58;;;17.90;99.90;;;;;;5015766;28;20060;-57
2023/07/31 07:49:04;;;;;;;3.10;1.65;;;18.00;99.90;;;;;;5016724;28;20116;-58
2023/07/31 07:51:31;;;;;;;16.33;1.70;;;18.10;99.90;;;;;;5016095;28;20518;-59
2023/07/31 07:53:57;;;;;;;2.30;1.30;;;18.10;99.90;;;;;;5018329;28;20029;-59
2023/07/31 07:56:24;;;;;;;4.82;1.80;;;18.20;99.90;;;;;;5016409;28;20116;-59
2023/07/31 07:58:50;;;;;;;12.98;2.30;;;18.20;99.90;;;;;;5018802;28;20025;-59
2023/07/31 08:01:16;;;;;;;2.47;1.50;;;18.20;99.90;;;;;;5022750;28;20060;-59
2023/07/31 08:03:41;;;;;;;4.13;1.73;;;18.20;99.90;;;;;;5018643;28;20088;-59
2023/07/31 08:06:09;;;;;;;4.57;1.90;;;18.30;99.90;;;;;;5019488;28;20107;-60
2023/07/31 08:08:35;;;;;;;3.53;1.90;;;18.40;99.90;;;;;;5018166;28;20033;-58
2023/07/31 08:11:01;;;;;;;5.15;1.90;;;18.40;99.90;;;;;;5020799;28;20474;-58
2023/07/31 08:13:26;;;;;;;4.20;2.10;;;18.40;99.90;;;;;;5018344;28;20036;-58
2023/07/31 08:15:52;;;;;;;8.23;1.88;;;18.50;99.90;;;;;;5021353;28;20038;-59
2023/07/31 08:18:18;;;;;;;7.18;2.03;;;18.60;99.90;;;;;;5020353;28;20088;-58
2023/07/31 08:20:44;;;;;;;4.32;1.80;;;18.70;99.90;;;;;;5015873;28;20049;-58
2023/07/31 08:23:10;;;;;;;5.43;1.65;;;18.70;99.90;;;;;;5019161;28;20026;-60
2023/07/31 08:25:36;;;;;;;4.57;1.75;;;18.70;99.90;;;;;;5019359;28;20030;-58
2023/07/31 08:28:02;;;;;;;2.65;1.60;;;18.70;99.90;;;;;;5016310;28;20052;-59
2023/07/31 08:30:28;;;;;;;3.38;1.83;;;18.70;99.90;;;;;;5019063;28;20034;-58
2023/07/31 08:32:54;;;;;;;5.90;2.25;;;18.80;99.90;;;;;;5019040;28;20089;-59
2023/07/31 08:35:19;;;;;;;5.72;1.95;;;18.80;99.90;;;;;;5019830;28;20112;-57
2023/07/31 08:37:45;;;;;;;4.80;1.80;;;18.90;99.90;;;;;;5013134;28;20038;-58
2023/07/31 08:40:11;;;;;;;5.68;1.70;;;18.90;99.90;;;;;;5015904;28;20048;-58
2023/07/31 08:42:47;;;;;;;3.50;1.90;;;18.90;99.90;;;;;;5016489;28;20095;-58
2023/07/31 08:45:15;;;;;;;4.25;1.60;;;18.90;99.90;;;;;;5013901;28;20028;-59
2023/07/31 08:47:52;;;;;;;5.65;2.42;;;19.00;99.90;;;;;;5017876;28;20053;-59
2023/07/31 08:50:19;;;;;;;2.83;1.70;;;19.10;99.90;;;;;;5020737;28;20033;-59
2023/07/31 08:52:47;;;;;;;7.63;1.90;;;19.20;99.90;;;;;;5020365;28;20034;-58
2023/07/31 08:55:13;;;;;;;3.03;1.77;;;19.30;99.90;;;;;;5019294;28;20033;-58
2023/07/31 08:57:39;;;;;;;3.50;1.40;;;19.30;99.90;;;;;;5018115;28;20049;-57
2023/07/31 09:00:07;;;;;;;3.75;1.40;;;19.40;99.90;;;;;;5018763;28;20033;-59
2023/07/31 09:02:46;;;;;;;4.72;1.70;;;19.50;99.90;;;;;;5017205;28;20022;-57
2023/07/31 09:05:12;;;;;;;6.60;1.77;;;19.70;99.90;;;;;;5017524;28;20073;-59
2023/07/31 09:07:39;;;;;;;3.55;1.42;;;20.10;99.90;;;;;;5020732;28;20040;-59
2023/07/31 09:10:05;;;;;;;3.20;1.80;;;20.40;99.90;;;;;;5020240;28;20045;-58
2023/07/31 09:12:31;;;;;;;5.43;1.80;;;20.50;99.90;;;;;;5014787;28;20037;-59
2023/07/31 09:15:01;;;;;;;7.88;1.67;;;20.60;99.90;;;;;;5020250;28;20022;-59
2023/07/31 09:17:31;;;;;;;3.92;1.35;;;20.90;99.90;;;;;;5019559;28;20156;-58
2023/07/31 09:19:56;;;;;;;3.55;1.30;;;21.50;99.90;;;;;;5018687;28;20041;-59
2023/07/31 09:22:33;;;;;;;3.88;1.23;;;21.90;99.90;;;;;;5018228;28;20121;-59
2023/07/31 09:25:21;;;;;;;2.63;1.20;;;22.10;99.90;;;;;;5017030;28;20439;-59
2023/07/31 09:28:03;;;;;;;4.15;1.20;;;22.10;99.90;;;;;;5019492;28;20030;-60
2023/07/31 09:30:29;;;;;;;5.05;1.42;;;22.00;99.90;;;;;;5015773;28;20018;-60
2023/07/31 09:33:08;;;;;;;2.97;1.33;;;22.20;99.90;;;;;;5016360;28;20549;-60
2023/07/31 09:35:35;;;;;;;3.60;1.33;;;22.10;99.90;;;;;;5017282;28;20028;-57
2023/07/31 09:38:13;;;;;;;4.05;1.52;;;21.90;99.90;;;;;;5017070;28;20033;-59
2023/07/31 09:40:40;;;;;;;2.33;1.10;;;21.90;99.90;;;;;;5016905;28;20083;-58
2023/07/31 09:43:10;;;;;;;3.72;1.30;;;21.80;99.90;;;;;;5018569;28;20028;-59
2023/07/31 09:45:37;;;;;;;2.95;1.10;;;21.60;99.90;;;;;;5019309;28;20045;-58
2023/07/31 09:48:06;;;;;;;3.58;1.20;;;21.50;99.90;;;;;;5014744;28;20029;-57
2023/07/31 09:50:32;;;;;;;4.32;1.52;;;21.40;99.90;;;;;;5018736;28;20025;-58
2023/07/31 09:52:57;;;;;;;2.42;1.40;;;21.20;99.90;;;;;;5013757;28;20611;-58
2023/07/31 09:55:25;;;;;;;3.13;1.15;;;21.20;99.90;;;;;;5017137;28;20038;-60
2023/07/31 09:57:50;;;;;;;3.28;1.30;;;21.20;99.90;;;;;;5018677;28;20125;-58
2023/07/31 10:00:18;;;;;;;3.47;1.50;;;21.20;99.90;;;;;;5018166;28;20525;-58
2023/07/31 10:02:48;;;;;;;3.40;1.30;;;21.10;99.90;;;;;;5015746;28;20037;-59
2023/07/31 10:05:17;;;;;;;4.75;1.60;;;21.00;99.90;;;;;;5019925;28;20053;-57
2023/07/31 10:07:50;;;;;;;5.13;1.45;;;20.60;99.90;;;;;;5018297;28;20041;-58
2023/07/31 10:10:17;;;;;;;2.67;1.40;;;20.40;99.90;;;;;;5016425;28;20033;-58
2023/07/31 10:12:45;;;;;;;3.90;1.70;;;20.30;99.90;;;;;;5019293;28;20029;-58
2023/07/31 10:15:11;;;;;;;4.45;1.70;;;20.40;99.90;;;;;;5018476;28;20042;-58
2023/07/31 10:17:38;;;;;;;1.98;1.30;;;20.60;99.90;;;;;;5017838;28;20021;-58
2023/07/31 10:20:05;;;;;;;3.08;1.40;;;20.80;99.90;;;;;;5018784;28;20041;-58
2023/07/31 10:22:32;;;;;;;2.33;1.15;;;21.00;99.90;;;;;;5016258;28;20964;-60
2023/07/31 10:25:00;;;;;;;4.53;1.48;;;21.30;99.90;;;;;;5017818;28;20040;-60
2023/07/31 10:27:25;;;;;;;2.40;1.70;;;21.40;99.90;;;;;;5018852;28;20031;-60
2023/07/31 10:29:54;;;;;;;3.53;1.27;;;21.50;99.90;;;;;;5013366;28;20084;-59
2023/07/31 10:32:21;;;;;;;3.20;1.42;;;21.50;99.90;;;;;;5016971;28;20010;-58
2023/07/31 10:34:48;;;;;;;2.90;1.60;;;21.50;99.90;;;;;;5018552;28;20040;-59
2023/07/31 10:37:37;;;;;;;2.90;1.20;;;21.60;99.90;;;;;;5014340;28;20141;-58
2023/07/31 10:40:12;;;;;;;3.13;1.20;;;21.80;99.90;;;;;;5014583;28;20128;-58
2023/07/31 10:42:49;;;;;;;3.47;1.40;;;22.20;99.90;;;;;;5011527;28;20045;-58
2023/07/31 10:45:25;;;;;;;2.90;1.30;;;22.40;99.90;;;;;;5014504;28;20037;-57
2023/07/31 10:48:01;;;;;;;2.17;1.25;;;22.50;99.90;;;;;;5016160;28;20109;-58
2023/07/31 10:50:29;;;;;;;2.33;1.30;;;22.50;99.90;;;;;;5014464;28;20018;-59
2023/07/31 10:52:56;;;;;;;2.53;1.40;;;22.60;99.90;;;;;;5017215;28;20092;-58
2023/07/31 10:55:41;;;;;;;4.32;1.85;;;22.60;99.90;;;;;;5016036;28;20401;-60
2023/07/31 10:58:11;;;;;;;1.92;1.05;;;22.30;99.90;;;;;;5019701;28;20572;-60
2023/07/31 11:00:41;;;;;;;2.13;1.00;;;22.20;99.90;;;;;;5017391;28;20442;-59
2023/07/31 11:03:10;;;;;;;2.00;1.08;;;22.00;99.90;;;;;;5015779;28;20381;-58
2023/07/31 11:05:47;;;;;;;1.90;1.10;;;22.10;99.90;;;;;;5019642;28;20075;-59
2023/07/31 11:08:26;;;;;;;2.25;1.30;;;22.30;99.90;;;;;;5016751;28;20056;-59
2023/07/31 11:11:06;;;;;;;3.95;1.33;;;22.40;99.90;;;;;;5017247;28;20160;-59
2023/07/31 11:13:52;;;;;;;3.63;1.60;;;22.60;99.90;;;;;;5015784;28;20445;-60
2023/07/31 11:16:23;;;;;;;1.60;1.23;;;22.50;99.90;;;;;;5018555;28;20041;-60
2023/07/31 11:18:51;;;;;;;2.13;1.17;;;22.40;99.90;;;;;;5018413;28;20047;-58
2023/07/31 11:21:22;;;;;;;1.58;1.20;;;22.30;99.90;;;;;;5016706;28;20273;-58
2023/07/31 11:23:57;;;;;;;4.03;1.40;;;22.30;99.90;;;;;;5015439;28;20100;-59
2023/07/31 11:26:24;;;;;;;2.50;1.35;;;22.30;99.90;;;;;;5017841;28;20018;-56
2023/07/31 11:28:51;;;;;;;4.47;1.50;;;22.20;99.90;;;;;;5015673;28;20141;-59
2023/07/31 11:31:17;;;;;;;2.55;1.40;;;22.10;99.90;;;;;;5016571;28;20042;-60
2023/07/31 11:33:43;;;;;;;3.92;1.30;;;22.00;99.90;;;;;;5014479;28;20493;-57
2023/07/31 11:36:20;;;;;;;7.95;1.70;;;21.90;99.90;;;;;;5013313;28;20069;-58
2023/07/31 11:38:46;;;;;;;2.85;1.42;;;21.90;99.90;;;;;;5014991;28;20049;-57
2023/07/31 11:41:15;;;;;;;4.97;1.40;;;21.90;99.90;;;;;;5014303;28;20025;-58
2023/07/31 11:43:41;;;;;;;1.70;1.20;;;21.90;99.90;;;;;;5015902;28;20030;-58
2023/07/31 11:46:07;;;;;;;2.42;1.48;;;21.80;99.90;;;;;;5015114;28;20030;-61
2023/07/31 11:48:35;;;;;;;3.25;1.67;;;21.80;99.90;;;;;;5015342;28;20037;-58
2023/07/31 11:51:02;;;;;;;2.10;1.30;;;21.80;99.90;;;;;;5017442;28;20414;-59
2023/07/31 11:53:28;;;;;;;4.43;1.60;;;21.70;99.90;;;;;;5017473;28;20036;-59
2023/07/31 11:55:55;;;;;;;3.13;1.20;;;21.60;99.90;;;;;;5017711;28;20034;-60
2023/07/31 11:58:22;;;;;;;3.80;1.50;;;21.50;99.90;;;;;;5015376;28;20038;-58
2023/07/31 12:00:48;;;;;;;2.55;1.42;;;21.40;99.90;;;;;;5016734;28;20042;-58
2023/07/31 12:03:14;;;;;;;2.80;1.48;;;21.30;99.90;;;;;;5020597;28;20026;-59
2023/07/31 12:05:39;;;;;;;3.65;1.50;;;21.30;99.90;;;;;;5015105;28;20018;-60
2023/07/31 12:08:15;;;;;;;2.22;1.20;;;21.40;99.90;;;;;;5019530;28;20071;-58
2023/07/31 12:10:41;;;;;;;3.75;1.58;;;21.50;99.90;;;;;;5018239;28;20044;-58
2023/07/31 12:13:14;;;;;;;2.58;1.40;;;21.40;99.90;;;;;;5018323;28;20034;-57
2023/07/31 12:15:41;;;;;;;3.22;1.83;;;21.30;99.90;;;;;;5013402;28;20046;-58
2023/07/31 12:18:19;;;;;;;5.22;1.60;;;21.20;99.90;;;;;;5017216;28;21406;-59
2023/07/31 12:20:46;;;;;;;2.63;1.38;;;21.10;99.90;;;;;;5019034;28;20030;-59
2023/07/31 12:23:19;;;;;;;3.00;1.45;;;20.90;99.90;;;;;;5021305;28;20029;-59
2023/07/31 12:25:45;;;;;;;3.33;1.52;;;20.80;99.90;;;;;;5016424;28;20040;-59
2023/07/31 12:28:13;;;;;;;5.35;1.95;;;20.60;99.90;;;;;;5017604;28;20034;-59
2023/07/31 12:30:41;;;;;;;3.85;1.88;;;20.50;99.90;;;;;;5017387;28;20081;-59
2023/07/31 12:33:15;;;;;;;2.92;1.67;;;20.40;99.90;;;;;;5020769;28;20033;-57
2023/07/31 12:35:45;;;;;;;3.50;1.45;;;20.30;99.90;;;;;;5020642;28;20041;-58
2023/07/31 12:38:12;;;;;;;4.32;1.58;;;20.30;99.90;;;;;;5020712;28;20060;-57
2023/07/31 12:40:39;;;;;;;4.03;1.63;;;20.30;99.90;;;;;;5017352;28;20164;-55
2023/07/31 12:43:05;;;;;;;2.95;1.50;;;20.30;99.90;;;;;;5019752;28;20022;-59
2023/07/31 12:45:31;;;;;;;2.28;1.40;;;20.30;99.90;;;;;;5016878;28;20022;-59